createdAt,value
2023-06-04T00:01:18.765Z,2.00
2023-06-04T00:04:04.097Z,1.90
2023-06-04T00:06:49.318Z,2.10
2023-06-04T00:09:34.598Z,1.70
2023-06-04T00:12:20.147Z,1.87
2023-06-04T00:15:06.390Z,2.00
2023-06-04T00:17:51.918Z,2.00
2023-06-04T00:20:37.170Z,2.10
2023-06-04T00:23:23.370Z,1.90
2023-06-04T00:26:08.789Z,1.70
2023-06-04T00:28:57.082Z,2.20
2023-06-04T00:31:43.577Z,2.07
2023-06-04T00:34:29.024Z,2.17
2023-06-04T00:37:14.344Z,1.70
2023-06-04T00:40:00.294Z,2.03
2023-06-04T00:42:45.789Z,2.13
2023-06-04T00:45:31.168Z,1.77
2023-06-04T00:48:16.283Z,2.00
2023-06-04T00:51:01.709Z,1.80
2023-06-04T00:53:47.584Z,1.80
2023-06-04T00:56:32.731Z,1.90
2023-06-04T00:59:18.111Z,2.00
2023-06-04T01:02:06.079Z,1.73
2023-06-04T01:04:54.240Z,1.97
2023-06-04T01:07:40.692Z,1.97
2023-06-04T01:10:27.160Z,1.87
2023-06-04T01:13:12.460Z,1.80
2023-06-04T01:15:57.914Z,1.90
2023-06-04T01:18:43.432Z,1.80
2023-06-04T01:21:31.555Z,2.00
2023-06-04T01:24:17.136Z,2.23
2023-06-04T01:27:03.847Z,1.97
2023-06-04T01:29:49.616Z,1.97
2023-06-04T01:32:35.555Z,1.97
2023-06-04T01:35:21.685Z,1.70
2023-06-04T01:38:07.555Z,1.90
2023-06-04T01:40:53.115Z,1.83
2023-06-04T01:43:38.611Z,1.90
2023-06-04T01:46:23.922Z,2.00
2023-06-04T01:49:09.402Z,2.00
2023-06-04T01:51:54.998Z,1.70
2023-06-04T01:54:40.373Z,1.70
2023-06-04T01:57:25.710Z,1.70
2023-06-04T02:00:12.649Z,1.90
2023-06-04T02:02:58.444Z,1.67
2023-06-04T02:05:44.057Z,1.80
2023-06-04T02:08:29.171Z,2.13
2023-06-04T02:11:14.448Z,2.10
2023-06-04T02:13:59.816Z,2.07
2023-06-04T02:16:45.064Z,2.07
2023-06-04T02:19:30.072Z,1.90
2023-06-04T02:22:15.491Z,1.73
2023-06-04T02:25:01.038Z,1.90
2023-06-04T02:27:46.596Z,1.93
2023-06-04T02:30:31.870Z,2.10
2023-06-04T02:33:17.271Z,2.07
2023-06-04T02:36:02.584Z,1.93
2023-06-04T02:38:47.768Z,2.17
2023-06-04T02:41:32.879Z,2.10
2023-06-04T02:44:18.321Z,1.97
2023-06-04T02:47:03.363Z,2.00
2023-06-04T02:49:48.700Z,2.10
2023-06-04T02:52:34.213Z,2.10
2023-06-04T02:55:19.374Z,2.17
2023-06-04T02:58:04.797Z,2.00
2023-06-04T03:00:50.040Z,2.00
2023-06-04T03:03:36.738Z,1.80
2023-06-04T03:06:23.001Z,1.93
2023-06-04T03:09:08.249Z,2.50
2023-06-04T03:11:55.253Z,2.00
2023-06-04T03:14:40.381Z,2.10
2023-06-04T03:17:27.170Z,2.23
2023-06-04T03:20:12.271Z,1.90
2023-06-04T03:22:57.736Z,2.23
2023-06-04T03:25:42.920Z,1.80
2023-06-04T03:28:28.489Z,1.83
2023-06-04T03:31:13.841Z,1.87
2023-06-04T03:33:59.328Z,1.90
2023-06-04T03:36:44.696Z,1.83
2023-06-04T03:39:30.262Z,2.00
2023-06-04T03:42:16.721Z,2.13
2023-06-04T03:45:02.437Z,1.80
2023-06-04T03:47:48.755Z,1.77
2023-06-04T03:50:34.087Z,2.00
2023-06-04T03:53:19.859Z,1.80
2023-06-04T03:56:05.387Z,1.97
2023-06-04T03:58:51.290Z,2.03
2023-06-04T04:01:36.989Z,2.03
2023-06-04T04:04:22.478Z,1.90
2023-06-04T04:07:08.179Z,2.00
2023-06-04T04:09:53.735Z,1.60
2023-06-04T04:12:39.842Z,1.77
2023-06-04T04:15:25.969Z,1.88
2023-06-04T04:18:12.736Z,1.90
2023-06-04T04:20:59.217Z,2.20
2023-06-04T04:23:46.384Z,2.10
2023-06-04T04:26:31.582Z,2.05
2023-06-04T04:29:17.960Z,1.75
2023-06-04T04:32:03.674Z,2.05
2023-06-04T04:34:55.451Z,2.20
2023-06-04T04:37:46.420Z,2.10
2023-06-04T04:40:34.694Z,2.35
2023-06-04T04:43:32.984Z,2.25
2023-06-04T04:46:23.477Z,2.17
2023-06-04T04:49:09.862Z,2.50
2023-06-04T04:51:55.426Z,2.47
2023-06-04T04:54:40.856Z,2.03
2023-06-04T04:57:26.578Z,2.20
2023-06-04T05:00:14.021Z,2.20
2023-06-04T05:03:02.230Z,2.10
2023-06-04T05:05:47.592Z,2.40
2023-06-04T05:08:33.326Z,2.38
2023-06-04T05:11:18.455Z,2.00
2023-06-04T05:14:05.629Z,2.25
2023-06-04T05:16:51.251Z,2.03
2023-06-04T05:19:38.120Z,2.00
2023-06-04T05:22:23.687Z,1.92
2023-06-04T05:25:09.529Z,1.88
2023-06-04T05:27:57.604Z,1.98
2023-06-04T05:30:43.386Z,1.80
2023-06-04T05:33:31.992Z,2.10
2023-06-04T05:36:21.516Z,2.17
2023-06-04T05:39:12.920Z,1.90
2023-06-04T05:42:08.476Z,2.08
2023-06-04T05:44:54.104Z,2.03
2023-06-04T05:47:41.653Z,2.00
2023-06-04T05:50:27.203Z,1.60
2023-06-04T05:53:12.831Z,2.00
2023-06-04T05:55:58.393Z,2.13
2023-06-04T05:58:43.799Z,2.05
2023-06-04T06:01:30.921Z,1.70
2023-06-04T06:04:16.548Z,1.83
2023-06-04T06:07:02.858Z,1.83
2023-06-04T06:09:48.606Z,1.98
2023-06-04T06:12:33.988Z,1.80
2023-06-04T06:15:19.475Z,1.90
2023-06-04T06:18:07.527Z,1.95
2023-06-04T06:20:52.913Z,1.73
2023-06-04T06:23:38.656Z,1.80
2023-06-04T06:26:24.850Z,1.90
2023-06-04T06:29:13.560Z,1.95
2023-06-04T06:31:59.107Z,1.75
2023-06-04T06:34:44.262Z,2.08
2023-06-04T06:37:29.330Z,1.80
2023-06-04T06:40:14.580Z,1.92
2023-06-04T06:43:00.031Z,1.70
2023-06-04T06:45:45.793Z,1.60
2023-06-04T06:48:31.296Z,1.95
2023-06-04T06:51:16.689Z,1.67
2023-06-04T06:54:01.982Z,1.80
2023-06-04T06:56:47.039Z,1.70
2023-06-04T06:59:32.229Z,1.70
2023-06-04T07:02:17.615Z,1.80
2023-06-04T07:05:03.353Z,1.60
2023-06-04T07:07:49.851Z,1.80
2023-06-04T07:10:35.027Z,1.90
2023-06-04T07:13:20.587Z,1.30
2023-06-04T07:16:05.997Z,1.60
2023-06-04T07:18:51.533Z,1.25
2023-06-04T07:21:37.214Z,1.70
2023-06-04T07:24:22.774Z,1.58
2023-06-04T07:27:15.212Z,1.40
2023-06-04T07:30:00.402Z,1.60
2023-06-04T07:32:49.162Z,1.50
2023-06-04T07:35:34.208Z,1.50
2023-06-04T07:38:19.811Z,1.50
2023-06-04T07:41:05.513Z,1.45
2023-06-04T07:43:50.919Z,1.15
2023-06-04T07:46:36.250Z,1.25
2023-06-04T07:49:21.624Z,1.20
2023-06-04T07:52:07.030Z,1.30
2023-06-04T07:54:52.293Z,1.23
2023-06-04T07:57:37.460Z,1.17
2023-06-04T08:00:22.687Z,1.45
2023-06-04T08:03:08.102Z,1.30
2023-06-04T08:05:53.607Z,1.10
2023-06-04T08:08:39.215Z,1.10
2023-06-04T08:11:24.938Z,1.40
2023-06-04T08:14:13.707Z,1.10
2023-06-04T08:16:59.284Z,1.20
2023-06-04T08:19:44.856Z,1.20
2023-06-04T08:22:30.016Z,1.13
2023-06-04T08:25:15.301Z,1.40
2023-06-04T08:28:00.486Z,1.70
2023-06-04T08:30:45.931Z,1.30
2023-06-04T08:33:31.464Z,1.13
2023-06-04T08:36:16.641Z,1.27
2023-06-04T08:39:02.478Z,1.25
2023-06-04T08:41:52.160Z,1.13
2023-06-04T08:44:37.303Z,1.27
2023-06-04T08:47:26.139Z,1.60
2023-06-04T08:50:13.185Z,1.40
2023-06-04T08:52:58.856Z,1.70
2023-06-04T08:55:43.963Z,1.42
2023-06-04T08:58:34.204Z,1.50
2023-06-04T09:01:19.689Z,1.10
2023-06-04T09:04:07.578Z,1.50
2023-06-04T09:06:55.458Z,1.10
2023-06-04T09:09:42.950Z,1.27
2023-06-04T09:12:30.594Z,1.25
2023-06-04T09:15:16.708Z,1.40
2023-06-04T09:18:02.294Z,1.30
2023-06-04T09:20:47.461Z,1.20
2023-06-04T09:23:51.161Z,1.30
2023-06-04T09:26:36.471Z,1.30
2023-06-04T09:29:21.541Z,1.27
2023-06-04T09:32:06.703Z,1.40
2023-06-04T09:34:52.261Z,1.60
2023-06-04T09:37:37.614Z,1.15
2023-06-04T09:40:23.956Z,1.23
2023-06-04T09:43:11.776Z,1.52
2023-06-04T09:45:57.400Z,1.42
2023-06-04T09:48:43.738Z,1.25
2023-06-04T09:51:29.750Z,1.50
2023-06-04T09:54:15.394Z,1.35
2023-06-04T09:57:00.800Z,1.30
2023-06-04T09:59:47.813Z,1.20
2023-06-04T10:02:33.200Z,1.30
2023-06-04T10:05:18.947Z,1.10
2023-06-04T10:08:05.048Z,1.30
2023-06-04T10:10:55.740Z,1.17
2023-06-04T10:14:08.979Z,1.30
2023-06-04T10:16:57.922Z,1.17
2023-06-04T10:19:44.976Z,1.10
2023-06-04T10:22:31.270Z,1.10
2023-06-04T10:25:17.944Z,1.38
2023-06-04T10:28:03.511Z,1.17
2023-06-04T10:30:49.447Z,1.25
2023-06-04T10:33:34.563Z,1.30
2023-06-04T10:36:22.391Z,1.30
2023-06-04T10:39:07.653Z,1.20
2023-06-04T10:42:03.528Z,1.20
2023-06-04T10:44:51.290Z,1.20
2023-06-04T10:47:36.991Z,1.20
2023-06-04T10:50:23.223Z,1.42
2023-06-04T10:53:09.545Z,1.33
2023-06-04T10:55:55.077Z,1.30
2023-06-04T10:58:40.286Z,1.20
2023-06-04T11:01:31.285Z,1.40
2023-06-04T11:04:27.213Z,1.30
2023-06-04T11:07:12.553Z,1.30
2023-06-04T11:09:57.740Z,1.20
2023-06-04T11:12:48.342Z,1.10
2023-06-04T11:15:43.107Z,1.40
2023-06-04T11:18:28.301Z,1.40
2023-06-04T11:21:13.756Z,1.15
2023-06-04T11:23:59.624Z,1.08
2023-06-04T11:26:50.753Z,1.10
2023-06-04T11:29:42.253Z,1.13
2023-06-04T11:32:27.580Z,1.25
2023-06-04T11:35:12.967Z,1.15
2023-06-04T11:37:59.493Z,1.23
2023-06-04T11:40:45.069Z,1.10
2023-06-04T11:43:30.533Z,1.10
2023-06-04T11:46:16.108Z,1.10
2023-06-04T11:49:03.342Z,1.10
2023-06-04T11:51:50.953Z,1.17
2023-06-04T11:54:37.175Z,1.10
2023-06-04T11:57:23.023Z,1.20
2023-06-04T12:00:09.844Z,1.13
2023-06-04T12:02:57.218Z,1.08
2023-06-04T12:05:42.498Z,1.10
2023-06-04T12:08:27.463Z,1.30
2023-06-04T12:11:33.248Z,1.00
2023-06-04T12:14:19.400Z,1.20
2023-06-04T12:17:09.219Z,1.45
2023-06-04T12:19:54.468Z,0.93
2023-06-04T12:22:46.792Z,1.00
2023-06-04T12:25:34.863Z,1.00
2023-06-04T12:28:20.689Z,1.15
2023-06-04T12:31:16.831Z,1.00
2023-06-04T12:34:02.441Z,1.08
2023-06-04T12:36:47.981Z,1.05
2023-06-04T12:39:37.236Z,1.10
2023-06-04T12:42:24.179Z,1.30
2023-06-04T12:45:11.246Z,1.00
2023-06-04T12:47:56.537Z,1.45
2023-06-04T12:50:42.431Z,1.50
2023-06-04T12:53:27.687Z,1.30
2023-06-04T12:56:13.143Z,1.33
2023-06-04T12:58:58.471Z,1.10
2023-06-04T13:01:43.904Z,1.15
2023-06-04T13:04:29.301Z,1.00
2023-06-04T13:07:14.586Z,1.13
2023-06-04T13:09:59.734Z,1.08
2023-06-04T13:12:44.902Z,1.08
2023-06-04T13:15:30.251Z,1.33
2023-06-04T13:18:15.415Z,1.13
2023-06-04T13:21:00.996Z,1.20
2023-06-04T13:23:50.607Z,1.15
2023-06-04T13:26:36.771Z,1.08
2023-06-04T13:29:22.055Z,0.82
2023-06-04T13:32:07.555Z,0.90
2023-06-04T13:34:52.840Z,1.00
2023-06-04T13:37:37.992Z,1.08
2023-06-04T13:40:23.747Z,1.05
2023-06-04T13:43:09.028Z,0.90
2023-06-04T13:45:54.424Z,0.90
2023-06-04T13:48:39.727Z,1.05
2023-06-04T13:51:25.229Z,1.05
2023-06-04T13:54:12.582Z,0.95
2023-06-04T13:56:58.752Z,0.93
2023-06-04T13:59:44.004Z,0.98
2023-06-04T14:02:29.510Z,0.90
2023-06-04T14:05:14.718Z,1.10
2023-06-04T14:08:00.049Z,1.08
2023-06-04T14:10:53.690Z,1.20
2023-06-04T14:13:39.409Z,0.90
2023-06-04T14:16:24.668Z,0.90
2023-06-04T14:19:10.356Z,1.00
2023-06-04T14:21:56.030Z,0.90
2023-06-04T14:24:42.274Z,1.02
2023-06-04T14:27:27.551Z,0.98
2023-06-04T14:30:13.265Z,1.10
2023-06-04T14:32:59.050Z,1.00
2023-06-04T14:35:44.422Z,0.90
2023-06-04T14:38:30.064Z,1.00
2023-06-04T14:41:16.802Z,1.15
2023-06-04T14:44:02.188Z,0.93
2023-06-04T14:46:47.800Z,1.00
2023-06-04T14:49:33.145Z,0.90
2023-06-04T14:52:18.612Z,1.13
2023-06-04T14:55:04.186Z,1.30
2023-06-04T14:57:51.514Z,2.20
2023-06-04T15:00:36.826Z,1.00
2023-06-04T15:03:22.467Z,1.08
2023-06-04T15:06:18.775Z,1.00
2023-06-04T15:09:05.830Z,1.08
2023-06-04T15:11:51.338Z,0.90
2023-06-04T15:14:36.581Z,1.00
2023-06-04T15:17:21.662Z,1.10
2023-06-04T15:20:07.723Z,1.05
2023-06-04T15:22:53.320Z,1.00
2023-06-04T15:25:38.832Z,1.05
2023-06-04T15:28:24.523Z,1.00
2023-06-04T15:31:09.767Z,1.20
2023-06-04T15:33:55.341Z,0.90
2023-06-04T15:36:40.602Z,0.90
2023-06-04T15:39:25.829Z,2.10
2023-06-04T15:42:11.554Z,1.45
2023-06-04T15:44:56.903Z,1.33
2023-06-04T15:47:42.332Z,0.90
2023-06-04T15:50:27.999Z,1.00
2023-06-04T15:53:13.515Z,1.02
2023-06-04T15:55:59.081Z,1.63
2023-06-04T15:58:45.123Z,0.90
2023-06-04T16:01:30.638Z,0.90
2023-06-04T16:04:16.122Z,1.00
2023-06-04T16:07:01.473Z,1.17
2023-06-04T16:09:46.838Z,1.20
2023-06-04T16:12:31.967Z,1.30
2023-06-04T16:15:17.473Z,1.00
2023-06-04T16:18:03.178Z,0.90
2023-06-04T16:20:48.751Z,1.00
2023-06-04T16:23:34.175Z,0.90
2023-06-04T16:26:20.065Z,1.10
2023-06-04T16:29:05.554Z,0.80
2023-06-04T16:31:51.024Z,1.02
2023-06-04T16:34:36.153Z,0.90
2023-06-04T16:37:21.398Z,1.00
2023-06-04T16:40:06.957Z,0.90
2023-06-04T16:42:52.340Z,1.10
2023-06-04T16:45:37.727Z,0.98
2023-06-04T16:48:23.080Z,0.73
2023-06-04T16:51:08.501Z,0.90
2023-06-04T16:53:54.995Z,1.10
2023-06-04T16:56:40.400Z,0.90
2023-06-04T16:59:26.108Z,0.90
2023-06-04T17:02:11.515Z,1.00
2023-06-04T17:04:56.796Z,0.90
2023-06-04T17:07:42.024Z,1.20
2023-06-04T17:10:31.659Z,0.82
2023-06-04T17:13:17.224Z,1.00
2023-06-04T17:16:02.662Z,0.95
2023-06-04T17:18:47.991Z,0.88
2023-06-04T17:21:33.192Z,1.00
2023-06-04T17:24:18.544Z,1.10
2023-06-04T17:27:04.451Z,1.10
2023-06-04T17:29:50.033Z,0.90
2023-06-04T17:32:35.195Z,0.90
2023-06-04T17:35:20.363Z,0.80
2023-06-04T17:38:06.187Z,0.90
2023-06-04T17:40:51.462Z,1.10
2023-06-04T17:43:36.855Z,0.80
2023-06-04T17:46:22.178Z,0.93
2023-06-04T17:49:07.858Z,0.90
2023-06-04T17:51:53.053Z,0.93
2023-06-04T17:54:38.237Z,0.90
2023-06-04T17:57:23.631Z,0.90
2023-06-04T18:00:10.176Z,0.90
2023-06-04T18:02:58.602Z,0.98
2023-06-04T18:05:43.833Z,1.00
2023-06-04T18:08:29.323Z,1.00
2023-06-04T18:11:14.594Z,1.00
2023-06-04T18:13:59.828Z,1.00
2023-06-04T18:16:45.073Z,0.90
2023-06-04T18:19:30.362Z,0.95
2023-06-04T18:22:15.736Z,1.10
2023-06-04T18:25:02.077Z,0.80
2023-06-04T18:27:47.992Z,0.90
2023-06-04T18:30:33.119Z,1.13
2023-06-04T18:33:18.469Z,1.00
2023-06-04T18:36:04.146Z,1.10
2023-06-04T18:38:49.266Z,0.90
2023-06-04T18:41:34.428Z,0.90
2023-06-04T18:44:19.823Z,1.10
2023-06-04T18:47:05.611Z,0.80
2023-06-04T18:49:50.997Z,0.93
2023-06-04T18:52:36.554Z,1.40
2023-06-04T18:55:22.353Z,1.77
2023-06-04T18:58:07.728Z,1.10
2023-06-04T19:00:53.095Z,0.95
2023-06-04T19:03:38.370Z,1.00
2023-06-04T19:06:23.703Z,1.17
2023-06-04T19:09:09.273Z,1.00
2023-06-04T19:11:54.814Z,1.08
2023-06-04T19:14:40.162Z,1.05
2023-06-04T19:17:25.601Z,1.02
2023-06-04T19:20:11.280Z,0.90
2023-06-04T19:22:56.796Z,1.00
2023-06-04T19:25:42.148Z,0.90
2023-06-04T19:28:27.896Z,0.90
2023-06-04T19:31:13.031Z,1.05
2023-06-04T19:33:58.251Z,0.98
2023-06-04T19:36:43.488Z,1.00
2023-06-04T19:39:28.677Z,0.90
2023-06-04T19:42:13.746Z,1.10
2023-06-04T19:44:59.529Z,0.90
2023-06-04T19:47:44.882Z,1.10
2023-06-04T19:50:30.571Z,0.90
2023-06-04T19:53:15.851Z,0.90
2023-06-04T19:56:01.455Z,5.35
2023-06-04T19:58:46.855Z,1.95
2023-06-04T20:01:32.445Z,1.05
2023-06-04T20:04:17.825Z,0.88
2023-06-04T20:07:05.849Z,1.17
2023-06-04T20:09:51.111Z,1.10
2023-06-04T20:12:36.314Z,1.10
2023-06-04T20:15:21.839Z,1.00
2023-06-04T20:18:07.291Z,1.10
2023-06-04T20:20:52.785Z,1.00
2023-06-04T20:23:38.068Z,1.20
2023-06-04T20:26:23.341Z,1.00
2023-06-04T20:29:08.755Z,1.20
2023-06-04T20:31:54.672Z,0.90
2023-06-04T20:34:39.993Z,1.08
2023-06-04T20:37:25.139Z,1.10
2023-06-04T20:40:10.456Z,0.80
2023-06-04T20:42:56.283Z,1.05
2023-06-04T20:45:41.450Z,1.00
2023-06-04T20:48:26.698Z,1.10
2023-06-04T20:51:13.367Z,1.00
2023-06-04T20:53:58.877Z,0.90
2023-06-04T20:56:44.344Z,1.00
2023-06-04T20:59:29.624Z,0.90
2023-06-04T21:02:15.486Z,1.00
2023-06-04T21:05:01.093Z,1.00
2023-06-04T21:07:46.205Z,1.20
2023-06-04T21:10:31.516Z,1.00
2023-06-04T21:13:16.729Z,1.10
2023-06-04T21:16:02.223Z,1.00
2023-06-04T21:18:47.600Z,1.10
2023-06-04T21:21:32.753Z,1.10
2023-06-04T21:24:18.049Z,1.30
2023-06-04T21:27:03.487Z,1.30
2023-06-04T21:29:48.824Z,1.10
2023-06-04T21:32:33.951Z,1.25
2023-06-04T21:35:19.446Z,1.00
2023-06-04T21:38:04.782Z,1.10
2023-06-04T21:40:50.339Z,1.13
2023-06-04T21:43:35.774Z,1.10
2023-06-04T21:46:21.521Z,1.02
2023-06-04T21:49:06.835Z,1.13
2023-06-04T21:51:52.922Z,1.02
2023-06-04T21:54:38.818Z,1.10
2023-06-04T21:57:24.088Z,1.13
2023-06-04T22:00:09.640Z,1.50
2023-06-04T22:03:01.165Z,1.20
2023-06-04T22:05:46.669Z,1.38
2023-06-04T22:08:32.226Z,1.00
2023-06-04T22:11:17.286Z,1.40
2023-06-04T22:14:02.995Z,1.20
2023-06-04T22:16:47.863Z,1.30
2023-06-04T22:19:33.305Z,1.25
2023-06-04T22:22:18.573Z,1.10
2023-06-04T22:25:04.300Z,1.10
2023-06-04T22:27:50.168Z,1.33
2023-06-04T22:30:35.317Z,1.20
2023-06-04T22:33:20.430Z,1.20
2023-06-04T22:36:06.114Z,1.10
2023-06-04T22:38:51.305Z,1.30
2023-06-04T22:41:36.463Z,1.40
2023-06-04T22:44:21.973Z,1.20
2023-06-04T22:47:08.297Z,1.42
2023-06-04T22:49:56.559Z,1.35
2023-06-04T22:52:41.732Z,1.15
2023-06-04T22:55:27.214Z,1.10
2023-06-04T22:58:13.323Z,1.20
2023-06-04T23:00:58.841Z,1.30
2023-06-04T23:03:44.580Z,1.27
2023-06-04T23:06:29.728Z,1.30
2023-06-04T23:09:15.014Z,1.40
2023-06-04T23:12:00.333Z,1.48
2023-06-04T23:14:46.348Z,1.25
2023-06-04T23:17:31.426Z,1.23
2023-06-04T23:20:17.595Z,1.05
2023-06-04T23:23:03.275Z,1.30
2023-06-04T23:25:48.783Z,1.20
2023-06-04T23:28:34.151Z,1.40
2023-06-04T23:31:19.634Z,1.50
2023-06-04T23:34:05.412Z,1.27
2023-06-04T23:36:50.707Z,1.35
2023-06-04T23:39:36.124Z,1.30
2023-06-04T23:42:21.490Z,1.20
2023-06-04T23:45:07.401Z,1.33
2023-06-04T23:47:53.426Z,1.30
2023-06-04T23:50:38.677Z,1.27
2023-06-04T23:53:49.415Z,1.58
2023-06-04T23:56:34.434Z,1.60
2023-06-04T23:59:19.850Z,1.40
